Time;durP1;ratioP1;P1;durP2;ratioP2;P2;SDS_P1;SDS_P2;PMS_P1;PMS_P2;Temp;Humidity;BMP_temperature;BMP_pressure;BME280_temperature;BME280_humidity;BME280_pressure;Samples;Min_cycle;Max_cycle;Signal;HPM_P1;HPM_P2
2023/04/21 00:01:08;;;;;;;12.37;8.73;;;;;;;;;;5075257;28;20860;-58
2023/04/21 00:03:37;;;;;;;4.70;4.40;;;;;;;;;;5074903;28;20473;-58
2023/04/21 00:06:05;;;;;;;4.03;3.83;;;;;;;;;;5074898;28;20428;-59
2023/04/21 00:08:31;;;;;;;4.40;4.00;;;;;;;;;;5075061;28;20445;-58
2023/04/21 00:10:57;;;;;;;3.67;3.57;;;;;;;;;;5074868;28;20855;-59
2023/04/21 00:13:23;;;;;;;3.47;3.27;;;;;;;;;;5074804;28;20915;-59
2023/04/21 00:15:49;;;;;;;3.43;3.00;;;;;;;;;;5073832;28;20427;-58
2023/04/21 00:18:16;;;;;;;3.10;3.00;;;;;;;;;;5073623;28;20418;-59
2023/04/21 00:20:42;;;;;;;2.00;2.00;;;;;;;;;;5074823;28;20505;-58
2023/04/21 00:23:09;;;;;;;2.30;2.20;;;;;;;;;;5074871;28;20519;-59
2023/04/21 00:25:36;;;;;;;1.90;1.90;;;;;;;;;;5074795;28;20776;-59
2023/04/21 00:28:02;;;;;;;2.70;2.57;;;;;;;;;;5074759;28;20408;-59
2023/04/21 00:30:28;;;;;;;2.33;2.33;;;;;;;;;;5074648;28;20406;-59
2023/04/21 00:32:54;;;;;;;2.60;2.50;;;;;;;;;;5074728;28;20495;-59
2023/04/21 00:35:20;;;;;;;2.77;2.67;;;;;;;;;;5074556;28;20253;-59
2023/04/21 00:37:49;;;;;;;3.07;2.87;;;;;;;;;;5074612;28;20480;-58
2023/04/21 00:40:15;;;;;;;3.10;3.00;;;;;;;;;;5073400;28;20939;-59
2023/04/21 00:42:43;;;;;;;2.30;2.10;;;;;;;;;;5074207;28;20517;-58
2023/04/21 00:45:10;;;;;;;2.53;2.47;;;;;;;;;;5074472;28;20467;-59
2023/04/21 00:47:38;;;;;;;2.60;2.50;;;;;;;;;;5073629;28;20509;-57
2023/04/21 00:50:05;;;;;;;1.85;1.85;;;;;;;;;;5074112;28;20416;-59
2023/04/21 00:52:31;;;;;;;2.10;2.10;;;;;;;;;;5073944;28;20195;-58
2023/04/21 00:54:59;;;;;;;3.10;3.00;;;;;;;;;;5074347;28;20417;-57
2023/04/21 00:57:27;;;;;;;2.70;2.70;;;;;;;;;;5074233;28;20586;-57
2023/04/21 00:59:53;;;;;;;2.75;2.75;;;;;;;;;;5074012;28;20611;-56
2023/04/21 01:02:19;;;;;;;2.50;2.50;;;;;;;;;;5074067;28;20218;-56
2023/04/21 01:04:48;;;;;;;3.15;3.05;;;;;;;;;;5074012;28;20186;-58
2023/04/21 01:07:14;;;;;;;3.13;3.03;;;;;;;;;;5074081;28;20179;-58
2023/04/21 01:09:40;;;;;;;2.87;2.77;;;;;;;;;;5073934;28;20707;-58
2023/04/21 01:12:12;;;;;;;2.72;2.72;;;;;;;;;;5073894;28;20430;-58
2023/04/21 01:14:39;;;;;;;3.20;3.10;;;;;;;;;;5073800;28;20176;-57
2023/04/21 01:17:07;;;;;;;2.60;2.50;;;;;;;;;;5073859;28;20199;-57
2023/04/21 01:19:35;;;;;;;3.40;3.30;;;;;;;;;;5073797;28;20190;-57
2023/04/21 01:22:02;;;;;;;2.60;2.50;;;;;;;;;;5073159;28;20456;-58
2023/04/21 01:24:44;;;;;;;2.97;2.88;;;;;;;;;;5073767;28;20752;-57
2023/04/21 01:27:17;;;;;;;3.50;3.40;;;;;;;;;;5073522;28;20252;-59
2023/04/21 01:29:46;;;;;;;3.40;3.30;;;;;;;;;;5073631;28;20176;-57
2023/04/21 01:32:13;;;;;;;3.45;3.35;;;;;;;;;;5073576;28;20195;-58
2023/04/21 01:34:40;;;;;;;4.38;4.00;;;;;;;;;;5073605;28;20203;-56
2023/04/21 01:37:08;;;;;;;3.95;3.70;;;;;;;;;;5073393;28;20245;-57
2023/04/21 01:39:34;;;;;;;3.28;3.17;;;;;;;;;;5073622;28;20160;-58
2023/04/21 01:42:03;;;;;;;3.53;3.20;;;;;;;;;;5073208;28;20171;-57
2023/04/21 01:44:29;;;;;;;3.60;3.40;;;;;;;;;;5072454;28;20425;-56
2023/04/21 01:46:55;;;;;;;3.38;3.10;;;;;;;;;;5073072;28;20388;-57
2023/04/21 01:49:23;;;;;;;2.93;2.83;;;;;;;;;;5073372;28;20171;-57
2023/04/21 01:51:49;;;;;;;3.20;3.00;;;;;;;;;;5071948;28;20426;-57
2023/04/21 01:54:15;;;;;;;2.63;2.60;;;;;;;;;;5073120;28;20175;-56
2023/04/21 01:56:41;;;;;;;2.97;2.67;;;;;;;;;;5073172;28;20406;-57
2023/04/21 01:59:07;;;;;;;2.60;2.60;;;;;;;;;;5073075;28;20425;-57
2023/04/21 02:01:34;;;;;;;2.73;2.53;;;;;;;;;;5072707;28;20215;-58
2023/04/21 02:04:00;;;;;;;2.47;2.47;;;;;;;;;;5072886;28;20436;-57
2023/04/21 02:06:30;;;;;;;3.40;3.10;;;;;;;;;;5072764;28;20224;-57
2023/04/21 02:08:56;;;;;;;3.90;3.70;;;;;;;;;;5072845;28;20195;-58
2023/04/21 02:11:23;;;;;;;3.80;3.70;;;;;;;;;;5072878;28;20536;-58
2023/04/21 02:13:49;;;;;;;3.33;3.22;;;;;;;;;;5072773;28;20991;-58
2023/04/21 02:16:15;;;;;;;3.90;3.30;;;;;;;;;;5072860;28;20306;-58
2023/04/21 02:18:43;;;;;;;4.43;3.83;;;;;;;;;;5072724;28;20807;-57
2023/04/21 02:21:09;;;;;;;4.07;3.88;;;;;;;;;;5072574;28;20421;-58
2023/04/21 02:23:35;;;;;;;4.72;3.30;;;;;;;;;;5072461;28;20302;-57
2023/04/21 02:26:01;;;;;;;3.17;3.07;;;;;;;;;;5072706;28;20260;-58
2023/04/21 02:28:27;;;;;;;6.13;5.60;;;;;;;;;;5072669;28;20430;-58
2023/04/21 02:30:53;;;;;;;6.82;6.20;;;;;;;;;;5072373;28;20402;-58
2023/04/21 02:33:19;;;;;;;5.50;4.97;;;;;;;;;;5071672;28;20210;-58
2023/04/21 02:35:45;;;;;;;4.00;3.43;;;;;;;;;;5072581;28;20475;-58
2023/04/21 02:38:11;;;;;;;4.30;4.10;;;;;;;;;;5072535;28;20776;-58
2023/04/21 02:40:37;;;;;;;3.85;3.65;;;;;;;;;;5072659;28;20471;-58
2023/04/21 02:43:03;;;;;;;4.38;4.18;;;;;;;;;;5072155;28;20627;-57
2023/04/21 02:45:31;;;;;;;4.30;4.10;;;;;;;;;;5072664;28;20160;-58
2023/04/21 02:47:58;;;;;;;4.47;4.28;;;;;;;;;;5071380;28;20457;-58
2023/04/21 02:50:26;;;;;;;3.60;3.40;;;;;;;;;;5072133;28;20179;-58
2023/04/21 02:52:52;;;;;;;3.50;3.40;;;;;;;;;;5072281;28;20550;-58
2023/04/21 02:55:18;;;;;;;3.10;3.00;;;;;;;;;;5071997;28;20236;-58
2023/04/21 02:57:44;;;;;;;3.70;3.50;;;;;;;;;;5070904;28;20872;-58
2023/04/21 03:00:13;;;;;;;3.58;3.47;;;;;;;;;;5072341;28;20529;-58
2023/04/21 03:02:39;;;;;;;2.92;2.83;;;;;;;;;;5072380;28;20199;-58
2023/04/21 03:05:05;;;;;;;3.08;2.90;;;;;;;;;;5071089;28;20180;-57
2023/04/21 03:07:31;;;;;;;3.35;3.25;;;;;;;;;;5072403;28;20188;-58
2023/04/21 03:09:57;;;;;;;3.65;3.45;;;;;;;;;;5072329;28;20168;-58
2023/04/21 03:12:23;;;;;;;2.73;2.63;;;;;;;;;;5072320;28;20193;-58
2023/04/21 03:14:49;;;;;;;2.60;2.60;;;;;;;;;;5072307;28;20425;-58
2023/04/21 03:17:15;;;;;;;2.60;2.50;;;;;;;;;;5071944;28;20422;-57
2023/04/21 03:19:41;;;;;;;3.30;3.20;;;;;;;;;;5072159;28;20429;-58
2023/04/21 03:22:07;;;;;;;2.83;2.73;;;;;;;;;;5071998;28;20461;-58
2023/04/21 03:24:33;;;;;;;2.87;2.87;;;;;;;;;;5072124;28;20444;-57
2023/04/21 03:27:00;;;;;;;2.83;2.73;;;;;;;;;;5072164;28;20389;-58
2023/04/21 03:29:28;;;;;;;2.85;2.85;;;;;;;;;;5072359;28;20775;-57
2023/04/21 03:31:57;;;;;;;3.17;3.08;;;;;;;;;;5072938;28;20202;-58
2023/04/21 03:34:23;;;;;;;3.70;3.50;;;;;;;;;;5072575;28;20492;-57
2023/04/21 03:36:49;;;;;;;3.60;3.50;;;;;;;;;;5072898;28;20210;-57
2023/04/21 03:39:15;;;;;;;3.30;3.20;;;;;;;;;;5072226;28;20203;-56
2023/04/21 03:41:41;;;;;;;3.38;3.35;;;;;;;;;;5072220;28;20467;-57
2023/04/21 03:44:07;;;;;;;3.95;3.72;;;;;;;;;;5071241;28;20315;-57
2023/04/21 03:46:33;;;;;;;3.20;3.10;;;;;;;;;;5075795;28;20207;-57
2023/04/21 03:48:59;;;;;;;3.47;3.37;;;;;;;;;;5075595;28;20437;-57
2023/04/21 03:51:27;;;;;;;4.10;3.80;;;;;;;;;;5075564;28;20432;-56
2023/04/21 03:53:53;;;;;;;3.70;3.60;;;;;;;;;;5075615;28;20438;-57
2023/04/21 03:56:19;;;;;;;3.87;3.67;;;;;;;;;;5075464;28;20653;-56
2023/04/21 03:58:45;;;;;;;4.07;3.92;;;;;;;;;;5075270;28;20540;-57
2023/04/21 04:01:11;;;;;;;4.03;3.83;;;;;;;;;;5075421;28;20175;-58
2023/04/21 04:03:37;;;;;;;3.87;3.67;;;;;;;;;;5075688;28;20219;-57
2023/04/21 04:06:03;;;;;;;3.90;3.80;;;;;;;;;;5075195;28;20506;-58
2023/04/21 04:08:30;;;;;;;4.35;4.15;;;;;;;;;;5075092;28;20525;-58
2023/04/21 04:10:56;;;;;;;4.70;4.50;;;;;;;;;;5075135;28;20538;-58
2023/04/21 04:13:23;;;;;;;4.65;4.35;;;;;;;;;;5074877;28;20583;-58
2023/04/21 04:15:49;;;;;;;4.38;4.13;;;;;;;;;;5075027;28;20233;-57
2023/04/21 04:18:15;;;;;;;8.77;4.65;;;;;;;;;;5073658;28;20200;-58
2023/04/21 04:20:41;;;;;;;5.53;5.23;;;;;;;;;;5073960;28;20259;-57
2023/04/21 04:23:07;;;;;;;32.03;19.77;;;;;;;;;;5074818;28;20457;-57
2023/04/21 04:25:33;;;;;;;20.98;15.23;;;;;;;;;;5074750;28;20822;-57
2023/04/21 04:27:59;;;;;;;5.63;5.20;;;;;;;;;;5073846;28;20215;-57
2023/04/21 04:30:27;;;;;;;4.85;4.65;;;;;;;;;;5074816;28;20414;-58
2023/04/21 04:32:53;;;;;;;7.07;6.57;;;;;;;;;;5074875;28;20652;-58
2023/04/21 04:35:19;;;;;;;5.75;5.25;;;;;;;;;;5074834;28;20560;-58
2023/04/21 04:37:48;;;;;;;10.60;7.72;;;;;;;;;;5074602;28;20653;-58
2023/04/21 04:40:16;;;;;;;10.13;9.07;;;;;;;;;;5074475;28;20539;-58
2023/04/21 04:42:44;;;;;;;13.43;11.23;;;;;;;;;;5074338;28;20234;-58
2023/04/21 04:45:10;;;;;;;10.40;8.77;;;;;;;;;;5074440;28;20195;-57
2023/04/21 04:47:36;;;;;;;9.43;8.40;;;;;;;;;;5074487;28;20176;-59
2023/04/21 04:50:03;;;;;;;8.05;7.45;;;;;;;;;;5073096;28;20207;-58
2023/04/21 04:52:29;;;;;;;8.07;7.38;;;;;;;;;;5072965;28;20190;-58
2023/04/21 04:54:55;;;;;;;7.88;7.07;;;;;;;;;;5074240;28;20200;-58
2023/04/21 04:57:21;;;;;;;8.60;7.30;;;;;;;;;;5073288;28;20191;-57
2023/04/21 04:59:47;;;;;;;5.90;5.40;;;;;;;;;;5074122;28;20272;-56
2023/04/21 05:02:13;;;;;;;5.90;5.50;;;;;;;;;;5074029;28;20410;-57
2023/04/21 05:04:39;;;;;;;31.43;21.17;;;;;;;;;;5074293;28;20924;-56
2023/04/21 05:07:06;;;;;;;5.47;5.07;;;;;;;;;;5074034;28;20920;-56
2023/04/21 05:09:32;;;;;;;5.88;5.40;;;;;;;;;;5074022;28;20685;-58
2023/04/21 05:11:59;;;;;;;5.72;5.38;;;;;;;;;;5073996;28;20620;-57
2023/04/21 05:14:26;;;;;;;7.88;5.90;;;;;;;;;;5074010;28;20227;-58
2023/04/21 05:16:54;;;;;;;6.93;6.43;;;;;;;;;;5073911;28;20248;-57
2023/04/21 05:19:22;;;;;;;6.63;6.22;;;;;;;;;;5073872;28;20662;-57
2023/04/21 05:21:48;;;;;;;5.65;5.35;;;;;;;;;;5073722;28;20679;-57
2023/04/21 05:24:14;;;;;;;10.37;6.80;;;;;;;;;;5073639;28;20207;-58
2023/04/21 05:26:40;;;;;;;9.33;8.47;;;;;;;;;;5073701;28;20452;-57
2023/04/21 05:29:06;;;;;;;15.23;11.07;;;;;;;;;;5073592;28;20405;-57
2023/04/21 05:31:33;;;;;;;11.33;9.80;;;;;;;;;;5073975;28;20390;-57
2023/04/21 05:33:59;;;;;;;9.50;7.68;;;;;;;;;;5072141;28;20475;-58
2023/04/21 05:36:26;;;;;;;10.40;6.27;;;;;;;;;;5073556;28;20168;-58
2023/04/21 05:38:53;;;;;;;6.72;6.22;;;;;;;;;;5073715;28;20414;-58
2023/04/21 05:41:21;;;;;;;6.13;5.65;;;;;;;;;;5073517;28;20556;-58
2023/04/21 05:43:47;;;;;;;7.63;5.65;;;;;;;;;;5073315;28;20223;-58
2023/04/21 05:46:13;;;;;;;8.10;5.43;;;;;;;;;;5073478;28;20650;-57
2023/04/21 05:48:40;;;;;;;5.93;5.43;;;;;;;;;;5073227;28;20176;-58
2023/04/21 05:51:10;;;;;;;5.80;5.50;;;;;;;;;;5073401;28;20389;-56
2023/04/21 05:53:36;;;;;;;6.13;5.70;;;;;;;;;;5073440;28;20659;-58
2023/04/21 05:56:02;;;;;;;9.18;8.27;;;;;;;;;;5050541;23;20243;-57
2023/04/21 05:58:31;;;;;;;7.93;7.10;;;;;;;;;;5033414;28;20550;-56
2023/04/21 06:00:59;;;;;;;7.03;6.53;;;;;;;;;;5033279;28;20778;-57
2023/04/21 06:03:25;;;;;;;8.52;7.68;;;;;;;;;;5033390;28;20215;-57
2023/04/21 06:05:54;;;;;;;7.63;6.93;;;;;;;;;;5032960;28;20212;-57
2023/04/21 06:08:23;;;;;;;5.57;5.37;;;;;;;;;;5032833;28;20412;-58
2023/04/21 06:10:49;;;;;;;5.00;4.80;;;;;;;;;;5032973;28;20455;-58
2023/04/21 06:13:15;;;;;;;7.40;4.90;;;;;;;;;;5048253;28;20180;-57
2023/04/21 06:15:43;;;;;;;5.60;5.10;;;;;;;;;;5032848;28;20561;-56
2023/04/21 06:18:11;;;;;;;5.57;5.18;;;;;;;;;;5033252;28;20390;-58
2023/04/21 06:20:39;;;;;;;5.63;5.30;;;;;;;;;;5032815;28;20201;-58
2023/04/21 06:23:05;;;;;;;5.10;4.90;;;;;;;;;;5032858;28;20196;-57
2023/04/21 06:25:31;;;;;;;5.47;5.07;;;;;;;;;;5032764;28;20208;-57
2023/04/21 06:27:57;;;;;;;5.63;5.33;;;;;;;;;;5032702;28;20439;-57
2023/04/21 06:30:23;;;;;;;6.00;5.70;;;;;;;;;;5032766;28;20408;-57
2023/04/21 06:32:52;;;;;;;7.30;6.80;;;;;;;;;;5032719;28;20423;-56
2023/04/21 06:35:19;;;;;;;9.93;6.53;;;;;;;;;;5032971;28;20796;-57
2023/04/21 06:37:45;;;;;;;6.73;6.33;;;;;;;;;;5032757;28;20427;-58
2023/04/21 06:40:14;;;;;;;8.57;7.97;;;;;;;;;;5032609;28;20441;-56
2023/04/21 06:42:40;;;;;;;8.33;7.53;;;;;;;;;;5032588;28;20434;-58
2023/04/21 06:45:07;;;;;;;8.97;8.03;;;;;;;;;;5032286;28;20447;-58
2023/04/21 06:47:32;;;;;;;9.40;8.57;;;;;;;;;;5032615;28;20997;-58
2023/04/21 06:50:01;;;;;;;9.07;8.17;;;;;;;;;;5032314;28;20495;-58
2023/04/21 06:52:27;;;;;;;9.43;8.47;;;;;;;;;;5032447;28;20416;-58
2023/04/21 06:54:53;;;;;;;9.90;8.90;;;;;;;;;;5032363;28;20768;-58
2023/04/21 06:57:21;;;;;;;11.10;9.90;;;;;;;;;;5032548;28;20389;-58
2023/04/21 06:59:49;;;;;;;9.40;7.40;;;;;;;;;;5032462;28;20846;-58
2023/04/21 07:02:15;;;;;;;10.70;9.20;;;;;;;;;;5031973;28;20420;-59
2023/04/21 07:04:41;;;;;;;11.60;9.67;;;;;;;;;;5031410;28;20489;-59
2023/04/21 07:07:07;;;;;;;13.50;10.87;;;;;;;;;;5032482;28;20418;-59
2023/04/21 07:09:33;;;;;;;159.90;75.00;;;;;;;;;;5032202;28;20456;-59
2023/04/21 07:11:59;;;;;;;109.57;52.47;;;;;;;;;;5032237;28;20422;-59
2023/04/21 07:14:28;;;;;;;34.23;19.30;;;;;;;;;;5032405;28;20412;-57
2023/04/21 07:16:55;;;;;;;9.10;8.30;;;;;;;;;;5030999;28;20534;-56
2023/04/21 07:19:21;;;;;;;13.50;10.57;;;;;;;;;;5033409;28;20435;-57
2023/04/21 07:21:47;;;;;;;8.53;7.83;;;;;;;;;;5036357;28;20525;-58
2023/04/21 07:24:13;;;;;;;8.97;8.07;;;;;;;;;;5036151;28;20558;-56
2023/04/21 07:26:39;;;;;;;8.47;7.70;;;;;;;;;;5036078;28;20427;-55
2023/04/21 07:29:08;;;;;;;8.40;6.87;;;;;;;;;;5036162;28;20953;-57
2023/04/21 07:31:33;;;;;;;7.47;6.80;;;;;;;;;;5034614;28;20435;-56
2023/04/21 07:34:00;;;;;;;8.77;7.87;;;;;;;;;;5035856;28;20416;-57
2023/04/21 07:36:27;;;;;;;7.87;7.23;;;;;;;;;;5035856;28;20463;-58
2023/04/21 07:38:53;;;;;;;8.33;7.63;;;;;;;;;;5036027;28;20423;-56
2023/04/21 07:41:19;;;;;;;10.07;8.40;;;;;;;;;;5035624;28;20802;-57
2023/04/21 07:43:45;;;;;;;7.90;7.20;;;;;;;;;;5035746;28;20549;-58
2023/04/21 07:46:12;;;;;;;8.30;7.60;;;;;;;;;;5035500;28;20439;-57
2023/04/21 07:48:38;;;;;;;7.53;6.93;;;;;;;;;;5035474;28;20436;-57
2023/04/21 07:51:04;;;;;;;8.37;7.57;;;;;;;;;;5035343;28;20926;-58
2023/04/21 07:53:30;;;;;;;7.57;7.03;;;;;;;;;;5034345;28;20797;-56
2023/04/21 07:55:56;;;;;;;7.20;6.60;;;;;;;;;;5035232;28;20649;-57
2023/04/21 07:58:22;;;;;;;6.93;6.30;;;;;;;;;;5035291;28;20450;-58
2023/04/21 08:00:48;;;;;;;7.40;6.90;;;;;;;;;;5035634;28;20443;-58
2023/04/21 08:03:14;;;;;;;7.77;6.97;;;;;;;;;;5035121;28;20470;-58
2023/04/21 08:05:40;;;;;;;7.30;6.70;;;;;;;;;;5035557;28;20408;-57
2023/04/21 08:08:06;;;;;;;7.90;7.20;;;;;;;;;;5035087;28;20407;-58
2023/04/21 08:10:33;;;;;;;8.13;7.63;;;;;;;;;;5034967;28;20423;-58
2023/04/21 08:13:05;;;;;;;7.43;6.93;;;;;;;;;;5035430;28;20839;-58
2023/04/21 08:15:36;;;;;;;7.87;7.20;;;;;;;;;;5035193;28;20416;-58
2023/04/21 08:18:02;;;;;;;7.60;7.00;;;;;;;;;;5035129;28;20436;-58
2023/04/21 08:20:28;;;;;;;7.60;7.10;;;;;;;;;;5034826;28;20420;-58
2023/04/21 08:22:54;;;;;;;7.37;6.87;;;;;;;;;;5035016;28;20514;-57
2023/04/21 08:25:20;;;;;;;8.43;7.63;;;;;;;;;;5034782;28;20438;-58
2023/04/21 08:27:48;;;;;;;7.23;6.70;;;;;;;;;;5034856;28;20403;-57
2023/04/21 08:30:14;;;;;;;6.40;5.80;;;;;;;;;;5034760;28;20430;-57
2023/04/21 08:32:43;;;;;;;7.17;6.30;;;;;;;;;;5034718;28;20419;-58
2023/04/21 08:35:09;;;;;;;6.10;5.80;;;;;;;;;;5034895;28;20494;-56
2023/04/21 08:37:38;;;;;;;6.17;5.90;;;;;;;;;;5034705;28;20412;-58
2023/04/21 08:40:05;;;;;;;7.23;6.50;;;;;;;;;;5033465;28;20424;-58
2023/04/21 08:42:32;;;;;;;6.10;5.80;;;;;;;;;;5034284;28;20497;-57
2023/04/21 08:44:58;;;;;;;6.93;6.13;;;;;;;;;;5034571;28;20416;-57
2023/04/21 08:47:26;;;;;;;8.77;5.70;;;;;;;;;;5034460;28;20443;-56
2023/04/21 08:49:53;;;;;;;6.60;6.10;;;;;;;;;;5034653;28;20550;-58
2023/04/21 08:52:19;;;;;;;6.00;5.70;;;;;;;;;;5034431;28;20432;-58
2023/04/21 08:54:46;;;;;;;6.57;6.07;;;;;;;;;;5034374;28;20429;-57
2023/04/21 08:57:12;;;;;;;7.10;6.70;;;;;;;;;;5034230;28;20446;-58
2023/04/21 08:59:38;;;;;;;7.40;6.90;;;;;;;;;;5034204;28;20412;-58
2023/04/21 09:02:08;;;;;;;7.30;6.60;;;;;;;;;;5033019;28;20931;-57
2023/04/21 09:04:34;;;;;;;20.33;13.13;;;;;;;;;;5032823;28;20845;-58
2023/04/21 09:07:00;;;;;;;5.80;5.50;;;;;;;;;;5034203;28;20931;-58
2023/04/21 09:09:26;;;;;;;7.07;6.47;;;;;;;;;;5033055;28;20420;-59
2023/04/21 09:11:58;;;;;;;7.53;7.03;;;;;;;;;;5034091;28;20462;-56
2023/04/21 09:14:36;;;;;;;7.30;6.80;;;;;;;;;;5033977;28;20425;-57
2023/04/21 09:17:04;;;;;;;7.87;7.23;;;;;;;;;;5032668;28;21019;-57
2023/04/21 09:19:33;;;;;;;7.53;6.77;;;;;;;;;;5033913;28;20419;-57
2023/04/21 09:22:00;;;;;;;7.50;6.90;;;;;;;;;;5033800;28;20412;-57
2023/04/21 09:24:28;;;;;;;5.00;4.60;;;;;;;;;;5033659;28;20474;-57
2023/04/21 09:26:56;;;;;;;5.63;5.43;;;;;;;;;;5033729;28;20463;-58
2023/04/21 09:29:23;;;;;;;6.20;5.90;;;;;;;;;;5035169;28;20769;-56
2023/04/21 09:31:50;;;;;;;5.80;5.50;;;;;;;;;;5034054;28;20438;-57
2023/04/21 09:34:18;;;;;;;6.17;5.87;;;;;;;;;;5033859;28;20505;-58
2023/04/21 09:36:45;;;;;;;6.90;6.50;;;;;;;;;;5033507;28;20507;-57
2023/04/21 09:39:13;;;;;;;5.77;5.47;;;;;;;;;;5033456;28;20415;-57
2023/04/21 09:41:40;;;;;;;7.60;7.20;;;;;;;;;;5033260;28;20444;-57
2023/04/21 09:44:06;;;;;;;7.20;6.60;;;;;;;;;;5033479;28;20447;-57
2023/04/21 09:46:33;;;;;;;8.33;7.63;;;;;;;;;;5033309;28;20412;-56
2023/04/21 09:49:02;;;;;;;8.60;7.70;;;;;;;;;;5033401;28;20777;-58
2023/04/21 09:51:30;;;;;;;7.67;7.00;;;;;;;;;;5033080;28;20420;-58
2023/04/21 09:53:58;;;;;;;9.17;8.33;;;;;;;;;;5033165;28;20922;-58
2023/04/21 09:56:25;;;;;;;6.33;5.83;;;;;;;;;;5033262;28;20460;-57
2023/04/21 09:58:59;;;;;;;7.07;6.60;;;;;;;;;;5033120;28;20511;-57
2023/04/21 10:01:26;;;;;;;6.93;6.43;;;;;;;;;;5032135;28;20851;-57
2023/04/21 10:03:53;;;;;;;7.40;6.70;;;;;;;;;;5032951;28;20475;-57
2023/04/21 10:06:19;;;;;;;6.63;6.07;;;;;;;;;;5031922;28;20434;-57
2023/04/21 10:08:45;;;;;;;7.73;7.20;;;;;;;;;;5032932;28;20486;-58
2023/04/21 10:11:12;;;;;;;8.53;6.93;;;;;;;;;;5033105;28;20411;-57
2023/04/21 10:13:39;;;;;;;7.83;7.30;;;;;;;;;;5032943;28;20416;-57
2023/04/21 10:16:06;;;;;;;25.90;18.50;;;;;;;;;;5032939;28;20412;-58
2023/04/21 10:18:35;;;;;;;10.03;8.53;;;;;;;;;;5032860;28;20450;-56
2023/04/21 10:21:03;;;;;;;8.73;7.93;;;;;;;;;;5032939;28;20863;-57
2023/04/21 10:23:43;;;;;;;15.77;11.50;;;;;;;;;;5032765;28;20934;-57
2023/04/21 10:26:23;;;;;;;39.50;22.50;;;;;;;;;;5032775;28;20428;-58
2023/04/21 10:28:55;;;;;;;11.30;10.23;;;;;;;;;;5032591;28;20412;-57
2023/04/21 10:31:28;;;;;;;14.00;8.90;;;;;;;;;;5032856;28;20880;-57
2023/04/21 10:34:12;;;;;;;9.53;8.80;;;;;;;;;;5032722;28;20482;-57
2023/04/21 10:36:56;;;;;;;10.50;9.70;;;;;;;;;;5032797;28;20400;-57
2023/04/21 10:39:34;;;;;;;9.80;9.00;;;;;;;;;;5032796;28;20779;-57
2023/04/21 10:42:12;;;;;;;9.00;8.30;;;;;;;;;;5032403;28;20794;-57
2023/04/21 10:45:05;;;;;;;8.77;7.90;;;;;;;;;;5032459;28;20458;-57
2023/04/21 10:47:42;;;;;;;8.63;7.60;;;;;;;;;;5030590;28;20539;-57
2023/04/21 10:50:16;;;;;;;11.00;10.03;;;;;;;;;;5033690;28;20464;-57
2023/04/21 10:52:46;;;;;;;9.70;8.90;;;;;;;;;;5034957;28;20409;-55
2023/04/21 10:55:14;;;;;;;9.83;8.93;;;;;;;;;;5035807;28;20441;-57
2023/04/21 10:57:41;;;;;;;16.37;9.30;;;;;;;;;;5036723;28;20434;-57
2023/04/21 11:00:10;;;;;;;7.63;7.13;;;;;;;;;;5036614;28;20420;-57
2023/04/21 11:02:38;;;;;;;11.20;8.97;;;;;;;;;;5036438;28;20441;-56
2023/04/21 11:05:05;;;;;;;9.67;8.83;;;;;;;;;;5036360;28;20554;-56
2023/04/21 11:07:31;;;;;;;14.53;9.87;;;;;;;;;;5036409;28;20443;-56
2023/04/21 11:09:58;;;;;;;9.87;9.07;;;;;;;;;;5036465;28;20463;-55
2023/04/21 11:12:27;;;;;;;13.13;10.37;;;;;;;;;;5036470;28;20470;-55
2023/04/21 11:14:56;;;;;;;11.90;10.80;;;;;;;;;;5036344;28;20405;-55
2023/04/21 11:17:23;;;;;;;12.47;10.67;;;;;;;;;;5036199;28;20500;-56
2023/04/21 11:19:50;;;;;;;11.43;10.30;;;;;;;;;;5036156;28;20520;-55
2023/04/21 11:22:19;;;;;;;16.37;10.47;;;;;;;;;;5036108;28;20396;-55
2023/04/21 11:24:46;;;;;;;11.63;10.43;;;;;;;;;;5036041;28;20425;-56
2023/04/21 11:27:13;;;;;;;15.47;11.17;;;;;;;;;;5036245;28;20869;-56
2023/04/21 11:29:39;;;;;;;11.73;10.53;;;;;;;;;;5036335;28;20955;-56
2023/04/21 11:32:06;;;;;;;11.00;10.03;;;;;;;;;;5034725;28;20906;-57
2023/04/21 11:34:36;;;;;;;10.90;10.00;;;;;;;;;;5036040;28;20914;-55
2023/04/21 11:37:01;;;;;;;12.93;10.73;;;;;;;;;;5035923;28;20416;-56
2023/04/21 11:39:27;;;;;;;10.93;9.90;;;;;;;;;;5036011;28;20399;-57
2023/04/21 11:41:56;;;;;;;10.40;9.40;;;;;;;;;;5035937;28;20906;-57
2023/04/21 11:44:31;;;;;;;10.00;9.00;;;;;;;;;;5035323;28;20564;-57
2023/04/21 11:46:57;;;;;;;8.90;8.30;;;;;;;;;;5035136;28;20432;-57
2023/04/21 11:49:29;;;;;;;17.70;10.80;;;;;;;;;;5036159;28;20465;-57
2023/04/21 11:51:55;;;;;;;10.30;9.50;;;;;;;;;;5035509;28;20519;-57
2023/04/21 11:54:23;;;;;;;16.33;10.13;;;;;;;;;;5034930;28;20958;-58
2023/04/21 11:56:54;;;;;;;9.60;8.80;;;;;;;;;;5035640;28;20446;-57
2023/04/21 11:59:28;;;;;;;11.27;9.53;;;;;;;;;;5035371;28;20416;-57
2023/04/21 12:01:54;;;;;;;9.53;8.73;;;;;;;;;;5035486;28;20477;-58
2023/04/21 12:04:21;;;;;;;9.93;9.03;;;;;;;;;;5033879;28;20560;-57
2023/04/21 12:06:55;;;;;;;10.83;9.93;;;;;;;;;;5035110;28;20450;-57
2023/04/21 12:09:21;;;;;;;11.30;10.03;;;;;;;;;;5035210;28;20425;-57
2023/04/21 12:11:49;;;;;;;16.87;13.90;;;;;;;;;;5036132;28;20477;-58
2023/04/21 12:14:17;;;;;;;25.53;18.60;;;;;;;;;;5036524;28;20993;-57
2023/04/21 12:16:43;;;;;;;16.30;10.90;;;;;;;;;;5035596;28;20420;-57
2023/04/21 12:19:09;;;;;;;11.83;9.20;;;;;;;;;;5035250;28;20431;-57
2023/04/21 12:21:38;;;;;;;9.17;8.37;;;;;;;;;;5035182;28;20420;-57
2023/04/21 12:24:04;;;;;;;10.33;9.20;;;;;;;;;;5034885;28;20483;-57
2023/04/21 12:26:33;;;;;;;10.33;9.33;;;;;;;;;;5034798;28;20408;-57
2023/04/21 12:29:01;;;;;;;10.37;9.37;;;;;;;;;;5034856;28;20436;-57
2023/04/21 12:31:27;;;;;;;10.77;9.67;;;;;;;;;;5034776;28;20407;-57
2023/04/21 12:33:53;;;;;;;14.50;9.20;;;;;;;;;;5033450;28;20441;-57
2023/04/21 12:36:19;;;;;;;10.27;9.37;;;;;;;;;;5034856;28;20501;-56
2023/04/21 12:38:45;;;;;;;8.83;8.03;;;;;;;;;;5035184;28;20470;-55
2023/04/21 12:41:11;;;;;;;8.47;7.87;;;;;;;;;;5034820;28;20910;-57
2023/04/21 12:43:37;;;;;;;9.70;8.80;;;;;;;;;;5034429;28;20479;-57
2023/04/21 12:46:03;;;;;;;9.00;8.10;;;;;;;;;;5034763;28;20426;-57
2023/04/21 12:48:29;;;;;;;8.77;8.07;;;;;;;;;;5034351;28;20433;-56
2023/04/21 12:50:55;;;;;;;10.80;8.60;;;;;;;;;;5034418;28;20515;-57
2023/04/21 12:53:21;;;;;;;9.80;9.00;;;;;;;;;;5034315;28;20434;-57
2023/04/21 12:55:47;;;;;;;9.40;8.60;;;;;;;;;;5034209;28;20448;-58
2023/04/21 12:58:14;;;;;;;11.40;9.40;;;;;;;;;;5034297;28;20426;-58
2023/04/21 13:00:40;;;;;;;9.30;8.53;;;;;;;;;;5034306;28;20933;-58
2023/04/21 13:03:08;;;;;;;10.37;9.47;;;;;;;;;;5034285;28;20473;-57
2023/04/21 13:05:39;;;;;;;8.63;8.00;;;;;;;;;;5034140;28;20415;-58
2023/04/21 13:08:05;;;;;;;8.60;8.00;;;;;;;;;;5034225;28;20440;-58
2023/04/21 13:10:31;;;;;;;11.23;7.80;;;;;;;;;;5034111;28;20421;-58
2023/04/21 13:12:57;;;;;;;8.50;7.60;;;;;;;;;;5033847;28;20408;-57
2023/04/21 13:15:23;;;;;;;8.17;7.47;;;;;;;;;;5033874;28;20417;-58
2023/04/21 13:17:49;;;;;;;7.37;6.40;;;;;;;;;;5033148;28;20410;-58
2023/04/21 13:20:17;;;;;;;6.83;6.23;;;;;;;;;;5033731;28;20529;-57
2023/04/21 13:22:44;;;;;;;5.97;5.57;;;;;;;;;;5033578;28;20426;-59
2023/04/21 13:25:10;;;;;;;6.10;5.53;;;;;;;;;;5033825;28;20458;-58
2023/04/21 13:27:37;;;;;;;6.27;5.53;;;;;;;;;;5033590;28;20457;-59
2023/04/21 13:30:04;;;;;;;6.30;5.80;;;;;;;;;;5033490;28;20527;-59
2023/04/21 13:32:30;;;;;;;13.57;6.10;;;;;;;;;;5033768;28;20403;-58
2023/04/21 13:34:57;;;;;;;6.93;6.30;;;;;;;;;;5033108;28;20427;-58
2023/04/21 13:37:25;;;;;;;8.30;6.87;;;;;;;;;;5033656;28;20441;-58
2023/04/21 13:39:51;;;;;;;7.90;7.13;;;;;;;;;;5033309;28;20529;-58
2023/04/21 13:42:17;;;;;;;7.57;6.87;;;;;;;;;;5033617;28;20438;-59
2023/04/21 13:44:45;;;;;;;7.17;6.63;;;;;;;;;;5033023;28;20814;-59
2023/04/21 13:47:11;;;;;;;8.60;6.50;;;;;;;;;;5032070;28;20431;-57
2023/04/21 13:49:38;;;;;;;6.77;6.27;;;;;;;;;;5031743;28;20422;-58
2023/04/21 13:52:04;;;;;;;8.30;6.80;;;;;;;;;;5033423;28;20426;-59
2023/04/21 13:54:32;;;;;;;9.13;7.63;;;;;;;;;;5032991;28;20573;-58
2023/04/21 13:56:58;;;;;;;8.20;7.60;;;;;;;;;;5031959;28;20429;-59
2023/04/21 13:59:24;;;;;;;8.23;7.47;;;;;;;;;;5032872;28;20483;-59
2023/04/21 14:01:50;;;;;;;9.70;7.77;;;;;;;;;;5032979;28;20446;-59
2023/04/21 14:04:17;;;;;;;8.70;7.90;;;;;;;;;;5032679;28;20481;-59
2023/04/21 14:06:44;;;;;;;8.43;7.67;;;;;;;;;;5032962;28;20546;-59
2023/04/21 14:09:10;;;;;;;8.63;8.13;;;;;;;;;;5032816;28;20506;-59
2023/04/21 14:11:37;;;;;;;8.43;7.83;;;;;;;;;;5032336;28;20418;-59
2023/04/21 14:14:02;;;;;;;9.70;8.00;;;;;;;;;;5032853;28;20407;-58
2023/04/21 14:16:31;;;;;;;9.00;8.23;;;;;;;;;;5031137;28;20420;-58
2023/04/21 14:18:57;;;;;;;10.77;8.73;;;;;;;;;;5033037;28;20473;-58
2023/04/21 14:21:23;;;;;;;11.53;9.60;;;;;;;;;;5031180;28;20423;-59
2023/04/21 14:23:51;;;;;;;11.03;9.90;;;;;;;;;;5032617;28;20561;-57
2023/04/21 14:26:17;;;;;;;10.17;9.20;;;;;;;;;;5032435;28;20778;-58
2023/04/21 14:28:43;;;;;;;10.20;9.40;;;;;;;;;;5032329;28;20427;-56
2023/04/21 14:31:09;;;;;;;9.47;8.77;;;;;;;;;;5032435;28;20418;-56
2023/04/21 14:33:35;;;;;;;9.50;8.70;;;;;;;;;;5032694;28;20427;-57
2023/04/21 14:36:01;;;;;;;11.93;10.40;;;;;;;;;;5032460;28;20522;-58
2023/04/21 14:38:29;;;;;;;10.43;9.60;;;;;;;;;;5032246;28;20423;-57